Aeroporto :







RITROVATECI SU...

 
LOGIN :

Iscrizione | Disclaimer

   EN    FR    IT 

 









Sommario :    VFR   VFR Marginale   IFR   IFR Intensivo   IFR Molto Intensivo
Visibilità : 
Base nubi : 
>= 8 km
>= 3000ft
5 / 8 km
1000 / 3000 ft
1500m / 5 km
500 / 1000 ft
800 / 1500m
200 / 500 ft
< 800m
< 200 ft
Simboli :   Temporali  Nebbia  Neve Forte  Precipitazioni Forti  Vento > 20 kt






- Altitudine del aeroporto : 232 ft
- Codice IATA : YQM


CYQM - Greater Moncton International

ULTIMO METAR :
  • 171300Z 21005KT 15SM BKN040 BKN220 M04/M06 A3000 RMK SC7CI1 CI TR SH NE CU ASOCTD SLP166

METARs OBSOLETI :
  • 171200Z 19004KT 15SM BKN055 BKN120 M04/M05 A2998 RMK SC6AC1 AC TR SH N SLP156
  • 171100Z 21004KT 15SM FEW050 FEW150 FEW220 M04/M06 A2998 RMK SC1AC1CI1 AC TR CI TR SLP156

TAF TAF CYQM
Valido dal 17 a 12 ore il 18 a 12 ore UTC


171139Z 1712/1812 23008KT P6SM SCT050
FM171400 25010KT P6SM BKN040
TEMPO 1714/1721 5SM -SHSN OVC020
FM172100 04008KT 2SM -SHSN OVC008
FM180000 31008KT P6SM SKC
BECMG 1805/1807 25008KT RMK NXT FCST BY 171800Z



MetMap, La meteo Aeronautica in un colpo d'occhio ! - Copyright ORBIFLY Dicembre 2007 - Disclaimer

ORBIFLY MET'MAP TEAM :

Programmazione e sviluppo : Alexandra Zaïnal
Concezione : Baudouin d'Aumeries
Aiuto per la programmazione : Marc-Olivier Méhu
Supporto tecnico e logistico : Manuel Goepfert
Aiuto per la traduzione : Arnaldo La Scala

Contatto : metmap@orbifly.com




FONTI E CREDITI :

   NOAA